createdAt,value
2022-08-01T00:00:27.906Z,42.81
2022-08-01T00:02:57.710Z,40.98
2022-08-01T00:05:27.272Z,40.51
2022-08-01T00:07:57.008Z,38.70
2022-08-01T00:10:26.289Z,35.11
2022-08-01T00:12:55.365Z,37.53
2022-08-01T00:15:24.719Z,36.86
2022-08-01T00:17:57.130Z,37.22
2022-08-01T00:20:26.404Z,35.63
2022-08-01T00:22:55.401Z,36.41
2022-08-01T00:25:33.793Z,37.00
2022-08-01T00:28:10.423Z,37.16
2022-08-01T00:30:40.153Z,36.83
2022-08-01T00:33:09.392Z,35.48
2022-08-01T00:35:38.386Z,35.11
2022-08-01T00:38:07.947Z,37.28
2022-08-01T00:40:38.204Z,36.45
2022-08-01T00:43:07.569Z,35.13
2022-08-01T00:45:40.075Z,35.84
2022-08-01T00:48:09.503Z,34.87
2022-08-01T00:50:41.603Z,34.63
2022-08-01T00:53:18.959Z,37.19
2022-08-01T00:55:51.333Z,38.35
2022-08-01T00:58:20.531Z,35.20
2022-08-01T01:00:56.418Z,36.54
2022-08-01T01:03:56.357Z,35.56
2022-08-01T01:06:57.822Z,38.02
2022-08-01T01:09:46.891Z,36.35
2022-08-01T01:12:27.534Z,36.27
2022-08-01T01:15:05.459Z,36.23
2022-08-01T01:17:50.614Z,36.41
2022-08-01T01:20:36.122Z,38.13
2022-08-01T01:23:14.498Z,39.19
2022-08-01T01:26:09.733Z,38.56
2022-08-01T01:29:07.322Z,39.33
2022-08-01T01:32:17.946Z,38.44
2022-08-01T01:34:59.797Z,43.46
2022-08-01T01:38:55.957Z,39.88
2022-08-01T01:42:01.973Z,39.94
2022-08-01T01:44:37.935Z,35.69
2022-08-01T01:47:41.478Z,35.80
2022-08-01T01:50:24.182Z,35.51
2022-08-01T01:56:55.804Z,36.72
2022-08-01T02:07:24.800Z,37.69
2022-08-01T02:10:00.580Z,37.03
2022-08-01T02:12:39.895Z,37.05
2022-08-01T02:15:12.655Z,36.75
2022-08-01T02:18:07.186Z,37.69
2022-08-01T02:20:41.758Z,35.88
2022-08-01T02:23:18.252Z,36.79
2022-08-01T02:26:37.921Z,37.82
2022-08-01T02:29:12.568Z,38.34
2022-08-01T02:31:47.596Z,38.17
2022-08-01T02:34:20.609Z,38.26
2022-08-01T02:36:53.902Z,39.15
2022-08-01T02:39:25.822Z,39.91
2022-08-01T02:41:59.801Z,40.14
2022-08-01T02:44:40.212Z,41.06
2022-08-01T02:50:38.257Z,42.29
2022-08-01T02:53:44.591Z,43.08
2022-08-01T02:56:21.229Z,44.50
2022-08-01T02:59:46.825Z,45.32
2022-08-01T03:02:31.777Z,45.97
2022-08-01T03:05:06.943Z,46.33
2022-08-01T03:07:41.054Z,47.72
2022-08-01T03:10:16.368Z,47.65
2022-08-01T03:12:48.284Z,47.71
2022-08-01T03:15:26.024Z,48.65
2022-08-01T03:17:57.004Z,49.02
2022-08-01T03:20:28.733Z,49.50
2022-08-01T03:23:02.475Z,50.69
2022-08-01T03:25:33.730Z,51.83
2022-08-01T03:28:09.011Z,52.76
2022-08-01T03:30:45.702Z,53.92
2022-08-01T03:33:18.925Z,54.81
2022-08-01T03:35:55.562Z,55.67
2022-08-01T03:38:28.263Z,56.56
2022-08-01T03:44:40.793Z,60.92
2022-08-01T03:47:12.134Z,61.04
2022-08-01T03:50:09.349Z,62.23
2022-08-01T03:53:10.093Z,63.94
2022-08-01T03:55:58.434Z,64.32
2022-08-01T03:58:50.272Z,65.26
2022-08-01T04:01:55.157Z,65.60
2022-08-01T04:04:34.045Z,68.10
2022-08-01T04:07:12.396Z,67.94
2022-08-01T04:09:45.726Z,68.21
2022-08-01T04:12:15.012Z,68.81
2022-08-01T04:14:56.292Z,69.26
2022-08-01T04:17:28.289Z,69.31
2022-08-01T04:20:22.074Z,70.14
2022-08-01T04:23:00.114Z,68.63
2022-08-01T04:25:36.106Z,68.10
2022-08-01T04:28:09.379Z,69.94
2022-08-01T04:30:47.425Z,71.62
2022-08-01T04:33:19.111Z,72.40
2022-08-01T04:36:03.412Z,72.38
2022-08-01T04:38:38.509Z,73.21
2022-08-01T04:41:16.982Z,70.71
2022-08-01T04:43:55.720Z,66.87
2022-08-01T04:46:34.333Z,62.96
2022-08-01T04:49:12.772Z,61.90
2022-08-01T04:52:01.798Z,60.89
2022-08-01T04:54:34.990Z,60.19
2022-08-01T04:57:04.404Z,60.29
2022-08-01T05:00:06.133Z,59.43
2022-08-01T05:02:43.669Z,59.38
2022-08-01T05:05:15.741Z,59.04
2022-08-01T05:07:47.913Z,59.51
2022-08-01T05:10:22.341Z,59.74
2022-08-01T05:12:57.506Z,60.49
2022-08-01T05:15:27.001Z,60.70
2022-08-01T05:18:04.289Z,60.77
2022-08-01T05:20:42.687Z,61.50
2022-08-01T05:23:41.880Z,63.61
2022-08-01T05:27:06.922Z,67.34
2022-08-01T05:29:41.388Z,71.01
2022-08-01T05:32:38.004Z,73.54
2022-08-01T05:35:08.117Z,74.99
2022-08-01T05:37:40.130Z,73.88
2022-08-01T05:40:10.336Z,73.21
2022-08-01T05:42:41.953Z,74.41
2022-08-01T05:45:12.422Z,76.33
2022-08-01T05:47:44.189Z,78.18
2022-08-01T05:50:13.524Z,80.25
2022-08-01T05:52:42.788Z,80.94
2022-08-01T05:55:11.995Z,82.53
2022-08-01T05:57:41.048Z,83.46
2022-08-01T06:00:11.649Z,84.29
2022-08-01T06:02:45.335Z,85.56
2022-08-01T06:05:14.493Z,86.10
2022-08-01T06:07:43.980Z,86.69
2022-08-01T06:10:14.452Z,87.97
2022-08-01T06:12:43.565Z,88.96
2022-08-01T06:15:14.117Z,90.88
2022-08-01T06:17:43.357Z,93.87
2022-08-01T06:20:12.742Z,95.46
2022-08-01T06:22:41.982Z,96.83
2022-08-01T06:25:11.657Z,100.00
2022-08-01T06:27:40.818Z,100.00
2022-08-01T06:30:11.000Z,100.00
2022-08-01T06:32:40.338Z,100.00
2022-08-01T06:35:10.323Z,100.00
2022-08-01T06:37:39.470Z,100.00
2022-08-01T06:40:16.331Z,100.00
2022-08-01T06:42:48.452Z,100.00
2022-08-01T06:45:24.093Z,100.00
2022-08-01T06:47:53.494Z,100.00
2022-08-01T06:50:24.994Z,100.00
2022-08-01T06:52:55.099Z,100.00
2022-08-01T06:55:24.182Z,100.00
2022-08-01T06:57:56.236Z,100.00
2022-08-01T07:00:27.722Z,100.00
2022-08-01T07:03:04.876Z,100.00
2022-08-01T07:05:33.974Z,100.00
2022-08-01T07:08:03.006Z,100.00
2022-08-01T07:10:32.211Z,100.00
2022-08-01T07:13:01.279Z,100.00
2022-08-01T07:15:30.452Z,100.00
2022-08-01T07:18:01.851Z,100.00
2022-08-01T07:20:33.844Z,100.00
2022-08-01T07:23:07.395Z,100.00
2022-08-01T07:25:37.200Z,100.00
2022-08-01T07:28:08.360Z,100.00
2022-08-01T07:30:37.359Z,100.00
2022-08-01T07:33:06.485Z,100.00
2022-08-01T07:35:36.264Z,100.00
2022-08-01T07:38:06.992Z,100.00
2022-08-01T07:40:39.060Z,100.00
2022-08-01T07:43:08.149Z,100.00
2022-08-01T07:45:37.351Z,100.00
2022-08-01T07:48:10.040Z,100.00
2022-08-01T07:50:39.218Z,100.00
2022-08-01T07:53:08.259Z,100.00
2022-08-01T07:55:37.417Z,100.00
2022-08-01T07:58:06.430Z,100.00
2022-08-01T08:00:35.655Z,100.00
2022-08-01T08:03:04.913Z,100.00
2022-08-01T08:05:59.011Z,100.00
2022-08-01T08:08:26.080Z,100.00
2022-08-01T08:10:55.272Z,100.00
2022-08-01T08:13:24.337Z,100.00
2022-08-01T08:15:53.333Z,100.00
2022-08-01T08:18:22.471Z,100.00
2022-08-01T08:20:51.541Z,100.00
2022-08-01T08:23:43.222Z,100.00
2022-08-01T08:26:13.185Z,100.00
2022-08-01T08:28:42.713Z,100.00
2022-08-01T08:31:25.048Z,100.00
2022-08-01T08:33:55.325Z,100.00
2022-08-01T08:36:31.109Z,100.00
2022-08-01T08:39:04.362Z,100.00
2022-08-01T08:41:37.992Z,100.00
2022-08-01T08:44:10.065Z,100.00
2022-08-01T08:46:48.928Z,100.00
2022-08-01T08:49:21.922Z,100.00
2022-08-01T08:51:53.694Z,100.00
2022-08-01T08:54:30.922Z,100.00
2022-08-01T08:57:02.478Z,100.00
2022-08-01T08:59:31.863Z,100.00
2022-08-01T09:02:01.371Z,100.00
2022-08-01T09:04:30.931Z,100.00
2022-08-01T09:06:59.986Z,100.00
2022-08-01T09:09:29.184Z,100.00
2022-08-01T09:11:58.558Z,100.00
2022-08-01T09:14:36.980Z,100.00
2022-08-01T09:17:10.312Z,100.00
2022-08-01T09:19:55.547Z,100.00
2022-08-01T09:22:27.263Z,100.00
2022-08-01T09:25:03.640Z,100.00
2022-08-01T09:27:33.781Z,100.00
2022-08-01T09:30:12.841Z,100.00
2022-08-01T09:33:11.127Z,100.00
2022-08-01T09:35:44.209Z,100.00
2022-08-01T09:38:21.090Z,100.00
2022-08-01T09:40:58.005Z,100.00
2022-08-01T09:43:31.391Z,100.00
2022-08-01T09:46:06.247Z,100.00
2022-08-01T09:48:35.446Z,100.00
2022-08-01T09:51:09.517Z,100.00
2022-08-01T09:53:51.083Z,100.00
2022-08-01T09:56:21.828Z,100.00
2022-08-01T09:59:01.460Z,100.00
2022-08-01T10:01:44.103Z,100.00
2022-08-01T10:04:21.703Z,100.00
2022-08-01T10:06:55.835Z,100.00
2022-08-01T10:09:39.897Z,100.00
2022-08-01T10:12:18.990Z,100.00
2022-08-01T10:14:54.205Z,100.00
2022-08-01T10:17:51.277Z,100.00
2022-08-01T10:20:30.648Z,100.00
2022-08-01T10:23:06.956Z,100.00
2022-08-01T10:25:47.039Z,100.00
2022-08-01T10:28:21.524Z,100.00
2022-08-01T10:30:54.527Z,100.00
2022-08-01T10:33:51.143Z,100.00
2022-08-01T10:36:15.403Z,100.00
2022-08-01T10:38:47.163Z,100.00
2022-08-01T10:41:20.756Z,100.00
2022-08-01T10:43:49.819Z,100.00
2022-08-01T10:46:22.006Z,100.00
2022-08-01T10:49:12.960Z,100.00
2022-08-01T10:51:52.059Z,100.00
2022-08-01T10:54:25.947Z,100.00
2022-08-01T10:56:58.258Z,100.00
2022-08-01T10:59:51.126Z,100.00
2022-08-01T11:02:32.303Z,100.00
2022-08-01T11:05:14.523Z,100.00
2022-08-01T11:07:57.216Z,100.00
2022-08-01T11:10:38.213Z,100.00
2022-08-01T11:13:10.421Z,100.00
2022-08-01T11:15:50.478Z,100.00
2022-08-01T11:18:29.834Z,100.00
2022-08-01T11:21:58.457Z,100.00
2022-08-01T11:23:57.803Z,100.00
2022-08-01T11:26:29.242Z,100.00
2022-08-01T11:29:28.393Z,100.00
2022-08-01T11:32:28.068Z,100.00
2022-08-01T11:34:58.399Z,100.00
2022-08-01T11:37:31.090Z,100.00
2022-08-01T11:40:27.236Z,100.00
2022-08-01T11:43:14.783Z,100.00
2022-08-01T11:45:50.947Z,100.00
2022-08-01T11:48:21.988Z,100.00
2022-08-01T11:50:58.226Z,100.00
2022-08-01T11:53:32.316Z,100.00
2022-08-01T11:56:02.841Z,100.00
2022-08-01T11:58:31.893Z,100.00
2022-08-01T12:01:01.655Z,100.00
2022-08-01T12:03:34.507Z,100.00
2022-08-01T12:06:04.082Z,100.00
2022-08-01T12:08:36.866Z,100.00
2022-08-01T12:11:07.488Z,100.00
2022-08-01T12:13:45.125Z,100.00
2022-08-01T12:16:14.540Z,100.00
2022-08-01T12:18:44.987Z,100.00
2022-08-01T12:21:14.180Z,100.00
2022-08-01T12:23:43.234Z,100.00
2022-08-01T12:26:28.471Z,100.00
2022-08-01T12:29:01.486Z,100.00
2022-08-01T12:31:35.187Z,100.00
2022-08-01T12:34:35.788Z,100.00
2022-08-01T12:37:05.565Z,100.00
2022-08-01T12:39:36.126Z,100.00
2022-08-01T12:42:12.527Z,100.00
2022-08-01T12:44:44.416Z,100.00
2022-08-01T12:47:14.635Z,100.00
2022-08-01T12:49:46.134Z,100.00
2022-08-01T12:52:16.571Z,100.00
2022-08-01T12:55:15.227Z,100.00
2022-08-01T12:57:52.944Z,100.00
2022-08-01T13:00:28.133Z,100.00
2022-08-01T13:03:11.843Z,100.00
2022-08-01T13:05:52.333Z,100.00
2022-08-01T13:08:32.699Z,100.00
2022-08-01T13:11:16.096Z,100.00
2022-08-01T13:13:51.986Z,100.00
2022-08-01T13:16:55.197Z,100.00
2022-08-01T13:19:17.202Z,100.00
2022-08-01T13:22:00.017Z,100.00
2022-08-01T13:24:31.152Z,100.00
2022-08-01T13:27:05.489Z,100.00
2022-08-01T13:29:40.427Z,100.00
2022-08-01T13:32:30.154Z,100.00
2022-08-01T13:35:10.042Z,100.00
2022-08-01T13:37:40.273Z,100.00
2022-08-01T13:40:11.244Z,100.00
2022-08-01T13:42:41.095Z,100.00
2022-08-01T13:45:14.457Z,100.00
2022-08-01T13:48:12.090Z,100.00
2022-08-01T13:50:34.673Z,100.00
2022-08-01T13:53:03.831Z,100.00
2022-08-01T13:55:35.350Z,100.00
2022-08-01T13:58:05.114Z,100.00
2022-08-01T14:00:34.304Z,100.00
2022-08-01T14:03:03.295Z,100.00
2022-08-01T14:05:32.818Z,100.00
2022-08-01T14:08:01.810Z,100.00
2022-08-01T14:10:31.276Z,100.00
2022-08-01T14:13:01.917Z,100.00
2022-08-01T14:15:38.547Z,100.00
2022-08-01T14:18:10.817Z,100.00
2022-08-01T14:20:41.035Z,100.00
2022-08-01T14:23:11.230Z,100.00
2022-08-01T14:26:02.659Z,100.00
2022-08-01T14:28:31.992Z,100.00
2022-08-01T14:31:01.949Z,100.00
2022-08-01T14:33:31.255Z,100.00
2022-08-01T14:36:06.651Z,100.00
2022-08-01T14:38:49.487Z,100.00
2022-08-01T14:41:18.501Z,100.00
2022-08-01T14:43:47.988Z,100.00
2022-08-01T14:46:17.262Z,100.00
2022-08-01T14:48:46.323Z,100.00
2022-08-01T14:51:15.375Z,100.00
2022-08-01T14:53:46.531Z,100.00
2022-08-01T14:56:16.246Z,100.00
2022-08-01T14:58:45.325Z,100.00
2022-08-01T15:01:14.809Z,100.00
2022-08-01T15:03:43.888Z,100.00
2022-08-01T15:06:14.396Z,100.00
2022-08-01T15:08:43.438Z,100.00
2022-08-01T15:11:12.500Z,100.00
2022-08-01T15:13:42.827Z,100.00
2022-08-01T15:16:12.586Z,100.00
2022-08-01T15:18:43.763Z,100.00
2022-08-01T15:21:29.332Z,100.00
2022-08-01T15:24:02.191Z,100.00
2022-08-01T15:26:31.591Z,100.00
2022-08-01T15:29:00.626Z,100.00
2022-08-01T15:31:29.754Z,100.00
2022-08-01T15:33:59.899Z,100.00
2022-08-01T15:36:31.067Z,100.00
2022-08-01T15:39:01.071Z,100.00
2022-08-01T15:41:30.062Z,100.00
2022-08-01T15:43:59.653Z,100.00
2022-08-01T15:46:28.747Z,100.00
2022-08-01T15:48:57.935Z,100.00
2022-08-01T15:51:27.364Z,100.00
2022-08-01T15:53:56.379Z,100.00
2022-08-01T15:56:26.131Z,100.00
2022-08-01T15:58:55.257Z,100.00
2022-08-01T16:01:24.415Z,100.00
2022-08-01T16:06:26.262Z,100.00
2022-08-01T16:08:55.431Z,100.00
2022-08-01T16:11:27.669Z,100.00
2022-08-01T16:13:56.996Z,100.00
2022-08-01T16:16:26.352Z,100.00
2022-08-01T16:18:55.588Z,100.00
2022-08-01T16:21:25.921Z,100.00
2022-08-01T16:23:55.066Z,100.00
2022-08-01T16:26:27.744Z,100.00
2022-08-01T16:28:58.848Z,100.00
2022-08-01T16:31:50.924Z,100.00
2022-08-01T16:34:17.215Z,100.00
2022-08-01T16:36:46.202Z,100.00
2022-08-01T16:39:17.364Z,100.00
2022-08-01T16:41:55.270Z,100.00
2022-08-01T16:44:29.049Z,100.00
2022-08-01T16:47:05.710Z,100.00
2022-08-01T16:49:35.045Z,100.00
2022-08-01T16:52:04.356Z,100.00
2022-08-01T16:54:33.669Z,100.00
2022-08-01T16:57:08.425Z,100.00
2022-08-01T16:59:41.208Z,100.00
2022-08-01T17:02:12.269Z,100.00
2022-08-01T17:04:41.460Z,100.00
2022-08-01T17:07:10.954Z,100.00
2022-08-01T17:09:43.685Z,100.00
2022-08-01T17:12:22.563Z,100.00
2022-08-01T17:14:52.337Z,100.00
2022-08-01T17:17:22.391Z,100.00
2022-08-01T17:19:52.422Z,100.00
2022-08-01T17:22:21.729Z,100.00
2022-08-01T17:24:52.014Z,100.00
2022-08-01T17:27:21.328Z,100.00
2022-08-01T17:29:50.441Z,100.00
2022-08-01T17:32:19.573Z,100.00
2022-08-01T17:34:48.773Z,100.00
2022-08-01T17:37:17.817Z,100.00
2022-08-01T17:39:46.962Z,100.00
2022-08-01T17:42:15.968Z,100.00
2022-08-01T17:44:48.838Z,100.00
2022-08-01T17:47:40.917Z,100.00
2022-08-01T17:50:10.111Z,100.00
2022-08-01T17:52:39.578Z,100.00
2022-08-01T17:55:54.001Z,100.00
2022-08-01T17:57:58.929Z,100.00
2022-08-01T18:00:28.660Z,100.00
2022-08-01T18:02:57.667Z,100.00
2022-08-01T18:05:36.970Z,100.00
2022-08-01T18:08:08.363Z,100.00
2022-08-01T18:10:40.119Z,100.00
2022-08-01T18:13:09.701Z,100.00
2022-08-01T18:15:38.812Z,100.00
2022-08-01T18:18:08.519Z,100.00
2022-08-01T18:20:37.675Z,100.00
2022-08-01T18:23:10.756Z,100.00
2022-08-01T18:25:40.075Z,100.00
2022-08-01T18:28:16.758Z,100.00
2022-08-01T18:30:59.413Z,100.00
2022-08-01T18:33:28.601Z,100.00
2022-08-01T18:36:03.852Z,100.00
2022-08-01T18:38:35.029Z,100.00
2022-08-01T18:41:06.047Z,100.00
2022-08-01T18:43:37.283Z,100.00
2022-08-01T18:46:07.303Z,100.00
2022-08-01T18:48:36.473Z,100.00
2022-08-01T18:51:08.519Z,100.00
2022-08-01T18:53:40.033Z,100.00
2022-08-01T18:56:15.350Z,100.00
2022-08-01T18:58:45.110Z,100.00
2022-08-01T19:01:14.936Z,100.00
2022-08-01T19:03:44.149Z,100.00
2022-08-01T19:06:13.164Z,100.00
2022-08-01T19:08:42.323Z,100.00
2022-08-01T19:11:11.427Z,100.00
2022-08-01T19:13:40.556Z,100.00
2022-08-01T19:16:09.780Z,100.00
2022-08-01T19:18:41.876Z,100.00
2022-08-01T19:21:10.990Z,100.00
2022-08-01T19:23:58.302Z,100.00
2022-08-01T19:26:28.420Z,100.00
2022-08-01T19:29:02.848Z,100.00
2022-08-01T19:31:31.965Z,100.00
2022-08-01T19:34:01.069Z,100.00
2022-08-01T19:36:30.209Z,100.00
2022-08-01T19:38:59.467Z,100.00
2022-08-01T19:41:30.462Z,100.00
2022-08-01T19:44:04.364Z,100.00
2022-08-01T19:46:34.256Z,100.00
2022-08-01T19:49:03.609Z,100.00
2022-08-01T19:51:37.853Z,100.00
2022-08-01T19:54:08.662Z,100.00
2022-08-01T19:56:45.232Z,100.00
2022-08-01T19:59:22.714Z,100.00
2022-08-01T20:01:55.157Z,100.00
2022-08-01T20:04:25.475Z,100.00
2022-08-01T20:06:55.442Z,100.00
2022-08-01T20:09:24.609Z,100.00
2022-08-01T20:11:55.038Z,100.00
2022-08-01T20:14:26.237Z,100.00
2022-08-01T20:16:57.100Z,100.00
2022-08-01T20:19:27.288Z,100.00
2022-08-01T20:22:03.851Z,100.00
2022-08-01T20:24:50.802Z,100.00
2022-08-01T20:27:25.286Z,100.00
2022-08-01T20:29:57.683Z,100.00
2022-08-01T20:32:33.237Z,100.00
2022-08-01T20:35:04.384Z,100.00
2022-08-01T20:38:05.646Z,100.00
2022-08-01T20:40:31.127Z,100.00
2022-08-01T20:43:00.833Z,100.00
2022-08-01T20:45:30.143Z,100.00
2022-08-01T20:48:00.652Z,100.00
2022-08-01T20:50:54.278Z,100.00
2022-08-01T20:53:25.232Z,100.00
2022-08-01T20:56:08.175Z,100.00
2022-08-01T20:58:58.720Z,100.00
2022-08-01T21:01:31.658Z,100.00
2022-08-01T21:04:32.220Z,100.00
2022-08-01T21:07:35.128Z,100.00
2022-08-01T21:10:08.932Z,100.00
2022-08-01T21:13:00.113Z,100.00
2022-08-01T21:15:33.813Z,97.68
2022-08-01T21:18:06.611Z,100.00
2022-08-01T21:20:39.935Z,100.00
2022-08-01T21:23:32.892Z,100.00
2022-08-01T21:26:02.267Z,100.00
2022-08-01T21:28:34.984Z,93.19
2022-08-01T21:31:05.298Z,100.00
2022-08-01T21:34:02.197Z,100.00
2022-08-01T21:36:31.767Z,99.44
2022-08-01T21:39:02.454Z,98.88
2022-08-01T21:42:03.375Z,100.00
2022-08-01T21:44:28.537Z,100.00
2022-08-01T21:47:01.503Z,100.00
2022-08-01T21:49:31.058Z,100.00
2022-08-01T21:52:23.541Z,100.00
2022-08-01T21:55:11.053Z,100.00
2022-08-01T21:58:01.985Z,100.00
2022-08-01T22:00:31.491Z,100.00
2022-08-01T22:03:26.463Z,100.00
2022-08-01T22:05:57.036Z,100.00
2022-08-01T22:08:37.922Z,100.00
2022-08-01T22:11:13.802Z,100.00
2022-08-01T22:13:43.007Z,100.00
2022-08-01T22:16:16.236Z,100.00
2022-08-01T22:18:47.013Z,100.00
2022-08-01T22:21:18.136Z,100.00
2022-08-01T22:23:48.240Z,100.00
2022-08-01T22:26:18.020Z,100.00
2022-08-01T22:28:48.020Z,100.00
2022-08-01T22:31:17.661Z,100.00
2022-08-01T22:33:48.969Z,100.00
2022-08-01T22:36:18.423Z,100.00
2022-08-01T22:38:47.671Z,100.00
2022-08-01T22:41:18.892Z,100.00
2022-08-01T22:43:59.071Z,100.00
2022-08-01T22:46:33.050Z,100.00
2022-08-01T22:49:10.803Z,100.00
2022-08-01T22:52:13.788Z,100.00
2022-08-01T22:54:50.259Z,100.00
2022-08-01T22:57:32.792Z,100.00
2022-08-01T23:00:06.773Z,100.00
2022-08-01T23:02:41.519Z,100.00
2022-08-01T23:05:15.614Z,100.00
2022-08-01T23:07:55.862Z,100.00
2022-08-01T23:10:27.468Z,100.00
2022-08-01T23:12:57.454Z,100.00
2022-08-01T23:15:27.118Z,92.17
2022-08-01T23:17:56.729Z,96.18
2022-08-01T23:20:27.588Z,97.89
2022-08-01T23:22:58.365Z,98.31
2022-08-01T23:25:28.444Z,95.84
2022-08-01T23:28:04.947Z,94.94
2022-08-01T23:30:36.529Z,83.16
2022-08-01T23:33:05.884Z,84.84
2022-08-01T23:35:38.735Z,94.42
2022-08-01T23:38:11.074Z,99.37
2022-08-01T23:40:40.277Z,86.47
2022-08-01T23:43:16.080Z,87.28
2022-08-01T23:46:03.967Z,90.91
2022-08-01T23:48:38.609Z,90.75
2022-08-01T23:51:09.426Z,95.22
2022-08-01T23:53:41.107Z,100.00
2022-08-01T23:56:12.787Z,97.48
2022-08-01T23:58:45.939Z,90.00
